x

9441102 - Westport, Wa (wptw1) Weather Station

6:36pm - Thu 8th Dec 2016 All times are PST. -8 hours from GMT.

  • Wind
    30mph, 45mph gusts
  • Sea Temp 45°f
  • 空気 Temp 32°f
  • Sea Pressure 1009.3mb
  • 9441102 - Westport, Wa
  • 9441102 - Westport, Wa

More Historic Weather Station data

Upgrade to MSW Pro to gain access to the past 30 days of data for over 8000 Wavebouys and Weather Stations around the globe.

Join Pro

Comparision Forecast

View Surf forecast
   
Thu 12/08 6:36pm 30 45 mph 1009.3mb 45f 32f
6:30pm 33 41 mph 1009.3mb 45f 32f
6:24pm 34 43 mph 1009.2mb 45f 32f
6:18pm 31 41 mph 1009.1mb 45f 32f
6:12pm 31 38 mph 1009.3mb 45f 32f
6:06pm 34 41 mph 1009.2mb 45f 32f
6:00pm 32 43 mph 1009.2mb 44f 32f
5:36pm 30 41 mph 1009.5mb 44f 32f
5:30pm 32 40 mph 1009.4mb 44f 32f
5:24pm 30 40 mph 1009.4mb 44f 32f
5:18pm 31 45 mph 1009.5mb 44f 32f
5:12pm 33 44 mph 1009.4mb 44f 32f
5:06pm 33 43 mph 1009.5mb 44f 32f
5:00pm 32 41 mph 1009.6mb 44f 32f
4:36pm 33 40 mph 1010mb 44f 31f
4:30pm 32 40 mph 1010.1mb 44f 32f
4:24pm 29 36 mph 1010.2mb 45f 32f
4:18pm 25 38 mph 1010.1mb 45f 31f
4:12pm 28 38 mph 1010.1mb 44f 31f
4:06pm 31 38 mph 1010mb 44f 31f
4:00pm 31 39 mph 1009.9mb 45f 31f
3:36pm 30 38 mph 1010.3mb 45f 31f
3:30pm 31 41 mph 1010.4mb 45f 31f
3:24pm 33 40 mph 1010.4mb 45f 31f
3:18pm 34 43 mph 1010.6mb 45f 31f
3:12pm 25 36 mph 1010.5mb 45f 31f
3:06pm 25 36 mph 1010.5mb 45f 31f
3:00pm 30 37 mph 1010.6mb 45f 31f
2:36pm 25 34 mph 1010.7mb 45f 33f
2:30pm 29 39 mph 1010.8mb 45f 33f
2:24pm 22 30 mph 1010.7mb 45f 34f
2:18pm 26 40 mph 1010.8mb 45f 35f
2:12pm 22 33 mph 1010.8mb 45f 36f
2:06pm 23 36 mph 1010.7mb 45f 36f
2:00pm 24 33 mph 1010.7mb 45f 36f
1:36pm 30 38 mph 1010.4mb 44f 37f
1:30pm 26 37 mph 1010.6mb 44f 36f
1:24pm 28 33 mph 1010.7mb 44f 36f
1:18pm 26 36 mph 1010.8mb 44f 36f
1:12pm 29 40 mph 1010.9mb 44f 37f
1:06pm 34 40 mph 1011mb 44f 36f
1:00pm 36 43 mph 1011.2mb 44f 36f
12:36pm 33 43 mph 1011.2mb 44f 37f
12:30pm 28 43 mph 1011mb 44f 37f
12:24pm 32 43 mph 1011mb 44f 37f
12:18pm 34 46 mph 1011.2mb 44f 36f
12:12pm 36 46 mph 1011.3mb 44f 36f
12:06pm 30 41 mph 1011.4mb 44f 36f
12:00pm 28 38 mph 1011.5mb 45f 36f
11:36am 30 41 mph 1012.2mb 45f 35f
11:30am 34 41 mph 1012.4mb 45f 35f
11:24am 30 40 mph 1012.5mb 45f 35f
11:18am 31 37 mph 1012.6mb 45f 35f
11:12am 30 40 mph 1012.5mb 45f 35f
11:06am 29 44 mph 1012.6mb 45f 35f
11:00am 31 44 mph 1012.7mb 45f 35f
10:36am 34 43 mph 1013.2mb 45f 35f
10:30am 33 40 mph 1013.5mb 46f 35f
10:24am 31 39 mph 1013.6mb 46f 35f
10:18am 34 43 mph 1013.7mb 46f 35f
10:12am 31 39 mph 1013.9mb 46f 35f
10:06am 30 40 mph 1013.8mb 46f 35f
10:00am 30 37 mph 1014.1mb 46f 35f
9:36am 34 48 mph 1013.5mb 47f 34f
9:30am 32 44 mph 1013.4mb 47f 34f
9:24am 34 46 mph 1013.5mb 47f 34f
9:18am 34 46 mph 1013.6mb 47f 34f
9:12am 33 46 mph 1013.8mb 48f 34f
9:06am 34 44 mph 1013.9mb 48f 34f
9:00am 31 41 mph 1013.9mb 48f 35f
8:36am 34 45 mph 1014.6mb 51f 34f
8:30am 37 45 mph 1014.6mb 51f 33f
8:24am 31 43 mph 1014.8mb 51f 33f
8:18am 33 43 mph 1014.8mb 52f 33f
8:12am 32 45 mph 1014.9mb 52f 33f
8:06am 29 39 mph 1014.9mb 52f 34f
8:00am 31 41 mph 1015.1mb 51f 33f
7:36am 33 43 mph 1015.1mb 51f 33f
7:30am 33 46 mph 1015.1mb 51f 33f
7:24am 32 40 mph 1015.1mb 51f 33f
7:18am 34 45 mph 1015.2mb 51f 33f
7:12am 34 43 mph 1015.3mb 51f 33f
7:06am 30 44 mph 1015.4mb 50f 33f
7:00am 32 45 mph 1015.4mb 50f 33f
6:36am 32 43 mph 1015.9mb 51f 33f
6:30am 36 44 mph 1016.1mb 50f 33f
6:24am 34 43 mph 1016.1mb 50f 33f
6:18am 29 39 mph 1016.3mb 51f 33f
6:12am 34 40 mph 1016.4mb 49f 33f
6:06am 26 37 mph 1016.3mb 48f 33f
6:00am 33 43 mph 1016.2mb 48f 33f
5:36am 31 40 mph 1016mb 47f 33f
5:30am 32 40 mph 1016mb 46f 33f
5:24am 34 45 mph 1016.2mb 45f 33f
5:18am 33 44 mph 1016.2mb 45f 33f
5:12am 34 44 mph 1016.3mb 45f 33f
5:06am 30 41 mph 1016.3mb 45f 33f
5:00am 29 44 mph 1016.3mb 45f 33f
4:36am 31 43 mph 1016.8mb 45f 33f
4:30am 30 40 mph 1016.9mb 45f 33f
4:24am 26 40 mph 1017mb 44f 33f
4:18am 30 38 mph 1017.2mb 44f 33f
4:12am 31 39 mph 1017.4mb 45f 33f
4:06am 28 33 mph 1017.5mb 45f 33f
4:00am 29 38 mph 1017.6mb 45f 33f
3:36am 31 40 mph 1018.3mb 45f 33f
3:30am 30 37 mph 1018.4mb 45f 33f
3:24am 23 37 mph 1018.5mb 45f 33f
3:18am 30 39 mph 1018.6mb 45f 33f
3:12am 29 39 mph 1018.7mb 45f 33f
3:06am 30 38 mph 1018.9mb 45f 33f
3:00am 28 38 mph 1018.9mb 45f 33f
2:36am 31 39 mph 1019.3mb 45f 33f
2:30am 28 36 mph 1019.4mb 45f 33f
2:24am 29 34 mph 1019.6mb 44f 33f
2:18am 29 37 mph 1019.7mb 45f 33f
2:12am 25 36 mph 1019.8mb 44f 33f
2:06am 28 36 mph 1019.9mb 44f 33f
2:00am 28 37 mph 1020mb 44f 33f
1:36am 26 38 mph 1020.4mb 44f 33f
1:30am 26 37 mph 1020.4mb 44f 33f
1:24am 29 38 mph 1020.5mb 44f 33f
1:18am 28 37 mph 1020.4mb 44f 33f
1:12am 24 37 mph 1020.4mb 44f 33f
1:06am 28 36 mph 1020.4mb 44f 33f
1:00am 29 36 mph 1020.5mb 44f 33f
12:36am 33 43 mph 1020.7mb 44f 33f
12:30am 30 40 mph 1020.7mb 44f 33f
12:24am 31 39 mph 1020.9mb 44f 33f
12:18am 30 40 mph 1021mb 44f 33f
12:12am 29 37 mph 1021.1mb 44f 33f
12:06am 29 39 mph 1021.2mb 44f 33f
12:00am 31 40 mph 1021.3mb 44f 33f
Wed 12/07 11:36pm 31 40 mph 1021.5mb 44f 33f
11:30pm 28 38 mph 1021.5mb 45f 33f
11:24pm 29 37 mph 1021.8mb 45f 33f
11:18pm 31 40 mph 1021.7mb 45f 33f
11:12pm 26 40 mph 1021.8mb 45f 33f
11:06pm 32 41 mph 1021.8mb 45f 33f
11:00pm 31 38 mph 1021.8mb 45f 33f
10:36pm 26 39 mph 1021.9mb 45f 33f
10:30pm 32 43 mph 1021.9mb 45f 33f
10:24pm 31 38 mph 1022.1mb 45f 33f
10:18pm 25 39 mph 1022.1mb 45f 33f
10:12pm 30 39 mph 1022.1mb 45f 33f
10:06pm 31 37 mph 1022.3mb 45f 33f
10:00pm 26 40 mph 1022.3mb 45f 33f
9:36pm 29 40 mph 1022.6mb 45f 34f
9:30pm 31 40 mph 1022.8mb 45f 34f
9:24pm 29 36 mph 1022.8mb 46f 34f
9:18pm 31 38 mph 1022.9mb 46f 34f
9:12pm 30 38 mph 1023mb 46f 34f
9:06pm 28 37 mph 1023mb 46f 34f
9:00pm 32 37 mph 1023mb 46f 34f
8:36pm 29 38 mph 1023mb 47f 34f
8:30pm 29 38 mph 1023.2mb 46f 34f
8:24pm 30 38 mph 1023.3mb 46f 34f
8:18pm 25 33 mph 1023.4mb 46f 34f
8:12pm 28 36 mph 1023.3mb 46f 34f
8:06pm 29 37 mph 1023.3mb 46f 34f
8:00pm 28 38 mph 1023.3mb 46f 34f
7:54pm 28 37 mph 1023.5mb 46f 34f
7:48pm 25 36 mph 1023.6mb 46f 34f
7:36pm 26 39 mph 1023.7mb 46f 34f
7:30pm 31 40 mph 1023.7mb 47f 34f
7:24pm 29 40 mph 1023.7mb 47f 34f
7:18pm 26 38 mph 1023.7mb 48f 34f
7:12pm 30 41 mph 1023.7mb 48f 34f
7:06pm 24 38 mph 1023.7mb 48f 34f
7:00pm 30 37 mph 1023.7mb 48f 34f
6:54pm 29 36 mph 1023.8mb 47f 34f
6:48pm 25 34 mph 1024mb 47f 34f
6:36pm 30 34 mph 1024.2mb 47f 34f
6:30pm 29 36 mph 1024.2mb 47f 34f
6:24pm 26 34 mph 1024.3mb 47f 35f
6:18pm 32 38 mph 1024.3mb 47f 34f
6:12pm 28 37 mph 1024.3mb 47f 35f
6:06pm 29 37 mph 1024.4mb 47f 35f
6:00pm 30 37 mph 1024.5mb 47f 35f
5:54pm 28 36 mph 1024.6mb 47f 35f
5:48pm 24 33 mph 1024.6mb 47f 35f
5:36pm 29 37 mph 1024.7mb 47f 35f
5:30pm 28 38 mph 1024.8mb 47f 35f
5:24pm 25 33 mph 1024.9mb 47f 35f
5:18pm 23 33 mph 1025mb 47f 35f
5:12pm 29 37 mph 1025.1mb 47f 35f
5:06pm 25 38 mph 1025.3mb 47f 35f
5:00pm 29 39 mph 1025.3mb 46f 35f
4:54pm 28 40 mph 1025.2mb 46f 35f
4:48pm 29 39 mph 1025.2mb 46f 35f
4:36pm 29 36 mph 1025.4mb 46f 36f
4:30pm 28 37 mph 1025.5mb 46f 36f
4:24pm 29 34 mph 1025.5mb 46f 36f
4:18pm 28 37 mph 1025.5mb 46f 36f
4:12pm 30 37 mph 1025.6mb 46f 36f
4:06pm 23 30 mph 1025.5mb 46f 36f
4:00pm 26 34 mph 1025.6mb 46f 36f
3:54pm 26 33 mph 1025.6mb 46f 37f
3:48pm 25 34 mph 1025.6mb 46f 37f
3:36pm 25 36 mph 1025.8mb 46f 37f
3:30pm 28 36 mph 1025.9mb 46f 37f
3:24pm 23 31 mph 1025.9mb 46f 37f
3:18pm 23 31 mph 1025.9mb 46f 37f
3:12pm 24 30 mph 1025.9mb 46f 37f
3:06pm 22 29 mph 1026mb 46f 37f
3:00pm 23 29 mph 1026.1mb 46f 37f
2:54pm 24 30 mph 1026.1mb 47f 37f
2:48pm 25 33 mph 1026.3mb 47f 37f
2:36pm 25 33 mph 1026.3mb 47f 37f
2:30pm 22 30 mph 1026.3mb 46f 37f
2:24pm 25 30 mph 1026.3mb 46f 37f
2:18pm 22 29 mph 1026.4mb 46f 37f
2:12pm 21 30 mph 1026.5mb 46f 37f
2:06pm 25 30 mph 1026.5mb 46f 37f
2:00pm 17 25 mph 1026.5mb 46f 37f
1:54pm 20 28 mph 1026.6mb 46f 37f
1:48pm 22 30 mph 1026.7mb 46f 37f
1:36pm 22 29 mph 1026.7mb 46f 37f
1:30pm 22 29 mph 1026.8mb 46f 36f
1:24pm 22 25 mph 1026.9mb 46f 36f
1:18pm 20 29 mph 1026.9mb 47f 36f
1:12pm 22 28 mph 1027.1mb 47f 36f
1:06pm 21 26 mph 1027.1mb 47f 36f
1:00pm 23 31 mph 1027.1mb 47f 36f
12:54pm 23 33 mph 1027.2mb 47f 36f
12:48pm 24 32 mph 1027.3mb 47f 36f
12:36pm 22 30 mph 1027.4mb 47f 36f
12:30pm 25 31 mph 1027.6mb 47f 35f
12:24pm 24 32 mph 1027.7mb 47f 35f
12:18pm 25 31 mph 1027.8mb 48f 35f
12:12pm 23 32 mph 1027.8mb 48f 35f
12:06pm 24 33 mph 1028mb 48f 35f
12:00pm 25 33 mph 1028.1mb 48f 35f
11:54am 22 30 mph 1028.3mb 48f 35f
11:48am 18 31 mph 1028.2mb 49f 35f
11:36am 24 31 mph 1028.4mb 49f 35f
11:30am 26 32 mph 1028.6mb 48f 34f
11:24am 25 31 mph 1028.7mb 48f 34f
11:18am 22 29 mph 1028.6mb 48f 35f
11:12am 22 30 mph 1028.8mb 49f 35f
11:06am 22 29 mph 1028.9mb 49f 34f
11:00am 23 28 mph 1028.9mb 49f 34f
10:54am 25 30 mph 1029mb 49f 34f
10:48am 24 31 mph 1029mb 49f 34f
10:36am 21 28 mph 1029mb 49f 34f
10:30am 20 25 mph 1029mb 49f 33f
10:24am 21 29 mph 1029mb 49f 33f
10:18am 21 24 mph 1028.9mb 49f 33f
10:12am 20 23 mph 1029mb 50f 33f
10:06am 20 25 mph 1029mb 50f 33f
10:00am 18 23 mph 1029mb 50f 33f
9:54am 17 23 mph 1028.9mb 50f 33f
9:48am 17 25 mph 1028.9mb 50f 33f
9:36am 18 26 mph 1028.8mb 50f 32f
9:30am 21 28 mph 1028.7mb 50f 32f
9:24am 18 25 mph 1028.8mb 50f 32f
9:18am 20 24 mph 1028.6mb 50f 32f
9:12am 15 23 mph 1028.6mb 51f 32f
9:06am 17 22 mph 1028.6mb 51f 32f
9:00am 20 24 mph 1028.6mb 51f 32f
8:54am 17 23 mph 1028.6mb 51f 32f
8:48am 22 29 mph 1028.6mb 51f 32f
8:36am 23 28 mph 1028.4mb 51f 32f
8:30am 20 28 mph 1028.5mb 51f 32f
8:24am 24 29 mph 1028.4mb 51f 32f
8:18am 21 26 mph 1028.5mb 51f 32f
8:12am 20 25 mph 1028.5mb 51f 32f
8:06am 20 24 mph 1028.5mb 51f 31f
8:00am 16 23 mph 1028.6mb 51f 31f
7:54am 16 23 mph 1028.6mb 51f 31f
7:48am 16 23 mph 1028.6mb 51f 31f
7:36am 17 22 mph 1028.4mb 51f 31f
7:30am 14 22 mph 1028.5mb 51f 31f
7:24am 16 23 mph 1028.5mb 51f 32f
7:18am 17 22 mph 1028.5mb 51f 32f
7:12am 18 24 mph 1028.6mb 51f 32f
7:06am 16 23 mph 1028.6mb 51f 32f
7:00am 18 22 mph 1028.6mb 51f 32f
6:54am 17 24 mph 1028.6mb 51f 32f
6:48am 17 22 mph 1028.6mb 51f 32f
6:36am 15 21 mph 1028.8mb 51f 32f
6:30am 20 23 mph 1028.8mb 51f 32f
6:24am 17 24 mph 1028.8mb 51f 32f
6:18am 18 23 mph 1028.7mb 51f 32f
6:12am 21 23 mph 1028.8mb 51f 32f
6:06am 18 24 mph 1028.8mb 52f 32f
6:00am 16 21 mph 1028.8mb 52f 32f
5:54am 18 24 mph 1028.7mb 52f 32f
5:48am 16 23 mph 1028.7mb 52f 32f
5:36am 18 26 mph 1028.6mb 51f 32f
5:30am 15 22 mph 1028.6mb 51f 32f
5:24am 17 24 mph 1028.6mb 51f 32f
5:18am 17 23 mph 1028.6mb 51f 32f
5:12am 18 24 mph 1028.7mb 51f 32f
5:06am 18 23 mph 1028.6mb 51f 32f
5:00am 16 24 mph 1028.6mb 51f 32f
4:54am 16 24 mph 1028.6mb 50f 33f
4:48am 18 23 mph 1028.6mb 50f 33f
4:36am 21 24 mph 1028.5mb 50f 33f
4:30am 15 22 mph 1028.5mb 50f 33f
4:24am 18 24 mph 1028.4mb 50f 33f
4:18am 17 24 mph 1028.5mb 50f 33f
4:12am 16 24 mph 1028.5mb 50f 33f
4:06am 17 22 mph 1028.5mb 50f 33f
4:00am 16 22 mph 1028.5mb 50f 33f
3:54am 17 21 mph 1028.5mb 50f 33f
3:48am 15 20 mph 1028.6mb 49f 33f
3:36am 14 18 mph 1028.6mb 49f 33f
3:30am 14 18 mph 1028.6mb 49f 33f
3:24am 11 15 mph 1028.7mb 49f 33f
3:18am 13 15 mph 1028.7mb 49f 33f
3:12am 11 15 mph 1028.7mb 48f 33f
3:06am 11 15 mph 1028.7mb 48f 33f
3:00am 10 14 mph 1028.8mb 48f 33f
2:54am 8 11 mph 1028.8mb 48f 33f
2:48am 8 11 mph 1028.8mb 47f 32f
2:36am 9 10 mph 1028.7mb 47f 33f
2:30am 9
mph
1028.7mb 48f 32f
2:24am 8 9 mph 1028.6mb 48f 32f
2:18am 8 10 mph 1028.6mb 47f 32f
2:12am 9 10 mph 1028.5mb 47f 32f
2:06am 8 10 mph 1028.5mb 47f 32f
2:00am 7 9 mph 1028.4mb 47f 32f
1:54am 6 9 mph 1028.5mb 48f 32f
1:48am 7 9 mph 1028.4mb 48f 32f
1:36am 7 10 mph 1028.3mb 48f 33f
1:30am 8 11 mph 1028.2mb 48f 33f
1:24am 8 13 mph 1028.2mb 48f 33f
1:18am 8 11 mph 1028.2mb 48f 33f
1:12am 10 13 mph 1028.2mb 48f 33f
1:06am 8 11 mph 1028.1mb 48f 34f
1:00am 9 11 mph 1028mb 48f 34f
12:54am 11 14 mph 1027.9mb 48f 34f
12:48am 11 14 mph 1027.9mb 48f 34f
12:36am 9 11 mph 1027.9mb 48f 33f
12:30am 9 11 mph 1027.7mb 48f 33f
12:24am 9 11 mph 1027.7mb 48f 33f
12:18am 9 11 mph 1027.6mb 48f 33f
12:12am 9 11 mph 1027.6mb 48f 33f
12:06am 9 11 mph 1027.5mb 48f 33f
12:00am 8 11 mph 1027.4mb 48f 33f
Tue 12/06 11:54pm 9 11 mph 1027.5mb 48f 33f
11:48pm 9 11 mph 1027.4mb 48f 34f
11:36pm 11 15 mph 1027.1mb 48f 34f
11:30pm 13 16 mph 1027.1mb 48f 34f
11:24pm 11 14 mph 1027.2mb 48f 34f
11:18pm 13 14 mph 1027.1mb 48f 34f
11:12pm 11 14 mph 1027.1mb 48f 34f
11:06pm 8 10 mph 1027.1mb 48f 34f
11:00pm 7 8 mph 1027mb 48f 34f
10:54pm 6 7 mph 1027mb 48f 33f
10:48pm 6 9 mph 1026.9mb 48f 33f
10:36pm 9 11 mph 1026.7mb 48f 34f
10:30pm 9 13 mph 1026.7mb 48f 33f
10:24pm 11 15 mph 1026.6mb 48f 34f
10:18pm 10 14 mph 1026.6mb 48f 34f
10:12pm 11 13 mph 1026.6mb 48f 34f
10:06pm 10 14 mph 1026.7mb 48f 34f
10:00pm 9 11 mph 1026.7mb 49f 34f
9:54pm 8 9 mph 1026.7mb 49f 35f
9:48pm 9 11 mph 1026.7mb 49f 35f
9:36pm 10 11 mph 1026.5mb 49f 35f
9:30pm 9 11 mph 1026.4mb 49f 35f
9:24pm 10
mph
1026.4mb 49f 35f
9:18pm 9
mph
1026.4mb 49f 36f
9:12pm 9 10 mph 1026.3mb 49f 36f
9:06pm 9 10 mph 1026.2mb 49f 36f
9:00pm 9 10 mph 1026.1mb 49f 36f
8:54pm 9 10 mph 1026.1mb 49f 36f
8:48pm 9 10 mph 1026mb 49f 36f
8:36pm 9 11 mph 1025.9mb 50f 37f
8:30pm 9 10 mph 1025.9mb 49f 36f
8:24pm 7 9 mph 1025.8mb 49f 35f
8:18pm 8 9 mph 1025.7mb 48f 36f
8:12pm 9
mph
1025.6mb 49f 36f
8:06pm 8 10 mph 1025.6mb 49f 36f
8:00pm 9 10 mph 1025.6mb 50f 35f
7:54pm 7 9 mph 1025.4mb 50f 35f
7:48pm 7 8 mph 1025.4mb 50f 35f
7:36pm 10 11 mph 1025.3mb 49f 36f
7:30pm 9 10 mph 1025.3mb 49f 36f
7:24pm 9 10 mph 1025.2mb 49f 37f
7:18pm 9 10 mph 1025.2mb 50f 36f
7:12pm 9 10 mph 1025.2mb 50f 37f
7:06pm 10
mph
1025.2mb 50f 37f
7:00pm 9 10 mph 1025.2mb 51f 37f
6:54pm 9 10 mph 1025.2mb 50f 38f
6:48pm 8
mph
1025.2mb 50f 38f
5:54pm 7 8 mph 1024.7mb 50f 39f
5:48pm 7 8 mph 1024.8mb 50f 39f
4:54pm 6 7 mph 1024.1mb 50f 39f
4:48pm 7 8 mph 1024.1mb 51f 39f
3:54pm 6 7 mph 1023.9mb 51f 41f
3:48pm 5 6 mph 1023.9mb 51f 42f
3:36pm 5 7 mph 1023.7mb 51f 43f
3:30pm 5 8 mph 1023.7mb 51f 42f
3:24pm 7 9 mph 1023.7mb 50f 42f
3:18pm 8 10 mph 1023.6mb 50f 42f
3:12pm 7 10 mph 1023.6mb 50f 42f
3:06pm 8 10 mph 1023.5mb 50f 42f
3:00pm 9 13 mph 1023.4mb 50f 42f
2:54pm 8 10 mph 1023.3mb 50f 42f
2:48pm 6 10 mph 1023.2mb 50f 42f
2:36pm 9 11 mph 1023mb 49f 42f
2:30pm 8 11 mph 1022.9mb 49f 42f
2:24pm 8 14 mph 1022.8mb 49f 42f
2:18pm 10 13 mph 1022.7mb 49f 42f
2:12pm 8 11 mph 1022.7mb 47f 42f
2:06pm 7 10 mph 1022.6mb 47f 42f
2:00pm 9 10 mph 1022.5mb 47f 41f
1:54pm 8 11 mph 1022.5mb 48f 42f
1:48pm 8 10 mph 1022.5mb 48f 41f
1:36pm 9 11 mph 1022.3mb 48f 41f
1:30pm 6 11 mph 1022.3mb 48f 41f
1:24pm 8 10 mph 1022.2mb 48f 41f
1:18pm 9 11 mph 1022.1mb 48f 41f
1:12pm 8 11 mph 1022mb 48f 40f
1:06pm 7 11 mph 1022mb 48f 41f
1:00pm 7 11 mph 1022mb 48f 41f
12:54pm 10 13 mph 1022mb 48f 40f
12:48pm 8 11 mph 1022mb 48f 39f
12:36pm 8 11 mph 1022mb 49f 39f
12:30pm 10 13 mph 1021.9mb 49f 40f
12:24pm 9 13 mph 1021.8mb 49f 40f
12:18pm 10 13 mph 1021.7mb 49f 40f
12:12pm 9 13 mph 1021.7mb 49f 40f
12:06pm 10 13 mph 1021.7mb 49f 40f
12:00pm 8 11 mph 1021.8mb 50f 38f
11:54am 9 11 mph 1021.7mb 50f 39f
11:48am 10 13 mph 1021.7mb 50f 39f
11:36am 11 15 mph 1021.7mb 50f 39f
11:30am 11 15 mph 1021.7mb 50f 38f
11:24am 10 13 mph 1021.7mb 50f 38f
11:18am 11 15 mph 1021.8mb 50f 39f
11:12am 9 13 mph 1021.7mb 50f 39f
11:06am 9 14 mph 1021.6mb 50f 39f
11:00am 9 14 mph 1021.6mb 50f 38f
10:54am 11 15 mph 1021.6mb 50f 38f
10:48am 11 15 mph 1021.6mb 50f 38f
10:30am 11 15 mph 1021.4mb 51f 38f
10:24am 11 14 mph 1021.4mb 51f 38f
10:18am 13 16 mph 1021.3mb 51f 38f
10:12am 9 13 mph 1021.2mb 51f 38f
10:06am 10 14 mph 1021mb 51f 38f
10:00am 10 15 mph 1020.9mb 51f 38f
9:54am 11 14 mph 1020.8mb 51f 37f
9:48am 8 14 mph 1020.8mb 51f 37f
9:30am 13 16 mph 1020.4mb 51f 36f
9:24am 14 16 mph 1020.5mb 51f 36f
9:18am 9 14 mph 1020.4mb 51f 37f
9:12am 9 15 mph 1020.2mb 51f 37f
9:06am 11 15 mph 1020mb 51f 37f
9:00am 11 17 mph 1019.9mb 51f 37f
8:54am 9 16 mph 1020mb 52f 37f
8:48am 11 20 mph 1019.9mb 52f 36f
8:36am 10 16 mph 1019.8mb 52f 36f
8:30am 11 15 mph 1019.6mb 52f 36f
8:24am 11 15 mph 1019.5mb 52f 35f
8:18am 10 14 mph 1019.5mb 52f 35f
8:12am 13 16 mph 1019.3mb 52f 35f
8:06am 13 16 mph 1019.3mb 51f 35f
8:00am 9 13 mph 1019.2mb 52f 35f
7:54am 9 11 mph 1019.1mb 52f 35f
7:48am 8 10 mph 1019mb 52f 35f
7:36am 11 15 mph 1018.9mb 52f 35f
7:30am 11 14 mph 1018.9mb 52f 35f
7:24am 10 13 mph 1018.8mb 52f 35f
7:18am 6 9 mph 1018.8mb 52f 35f
7:12am 7 9 mph 1018.7mb 52f 35f
7:06am 8 11 mph 1018.6mb 52f 35f
7:00am 8 11 mph 1018.5mb 52f 35f
6:54am 7 10 mph 1018.4mb 52f 35f
6:48am 7 11 mph 1018.3mb 52f 35f
6:36am 8 11 mph 1018.1mb 52f 35f
6:30am 9 10 mph 1018.1mb 52f 35f
6:24am 9 14 mph 1018mb 52f 35f
6:18am 9 14 mph 1017.9mb 52f 35f
6:12am 9 13 mph 1017.9mb 52f 35f
6:06am 10 13 mph 1017.8mb 52f 35f
6:00am 9 11 mph 1017.7mb 52f 35f
5:54am 9 11 mph 1017.8mb 52f 35f
5:48am 7 9 mph 1017.6mb 52f 35f
5:36am 8 10 mph 1017.5mb 52f 35f
5:30am 8 10 mph 1017.5mb 52f 35f
5:24am 7 10 mph 1017.5mb 52f 35f
5:18am 6 8 mph 1017.5mb 52f 35f
5:12am 6 9 mph 1017.5mb 52f 35f
5:06am 6 8 mph 1017.4mb 52f 34f
5:00am 6 7 mph 1017.4mb 52f 34f
4:54am 6 8 mph 1017.4mb 52f 34f
4:48am 6 10 mph 1017.4mb 52f 34f
4:36am 8 10 mph 1017.3mb 52f 34f
4:30am 8 10 mph 1017.3mb 51f 34f
4:24am 7 9 mph 1017.3mb 51f 34f
4:18am 8 10 mph 1017.2mb 51f 34f
4:12am 7 10 mph 1017.1mb 51f 34f
4:06am 8 10 mph 1017mb 51f 33f
4:00am 8 10 mph 1017mb 51f 33f
3:54am 8 10 mph 1017mb 51f 33f
3:48am 8 9 mph 1016.9mb 51f 33f
3:36am 9 10 mph 1016.8mb 50f 34f
3:30am 8 11 mph 1016.8mb 50f 35f
3:24am 8 13 mph 1016.8mb 50f 35f
3:18am 9 11 mph 1016.8mb 49f 35f
3:12am 10 11 mph 1016.8mb 49f 35f
3:06am 9 13 mph 1016.7mb 49f 34f
3:00am 8 13 mph 1016.7mb 49f 34f
2:54am 10 13 mph 1016.6mb 48f 35f
2:48am 10 13 mph 1016.6mb 48f 35f
2:36am 9 14 mph 1016.5mb 49f 35f
2:30am 9 14 mph 1016.5mb 48f 35f
2:24am 8 11 mph 1016.4mb 48f 35f
2:18am 8 14 mph 1016.4mb 48f 35f
2:12am 10 13 mph 1016.3mb 48f 36f
2:06am 10 13 mph 1016.2mb 47f 36f
2:00am 9 13 mph 1016.2mb 47f 35f
1:54am 10 14 mph 1016.2mb 47f 35f
1:48am 11 13 mph 1016.1mb 48f 35f
1:36am 8 11 mph 1016.1mb 48f 35f
1:30am 7 9 mph 1016.1mb 48f 34f
1:24am 8 9 mph 1016.1mb 48f 34f
1:18am 8 10 mph 1016.1mb 48f 34f
1:12am 7 9 mph 1016.1mb 48f 34f
1:06am 7 8 mph 1016.1mb 48f 34f
1:00am 8 10 mph 1016mb 48f 34f
12:54am 10 11 mph 1016mb 48f 33f
12:48am 10 11 mph 1016.1mb 48f 33f
12:36am 9 10 mph 1016.1mb 49f 33f
12:30am 9 10 mph 1016mb 49f 33f
12:24am 8 9 mph 1016.1mb 49f 33f
12:18am 7 9 mph 1016.1mb 49f 33f
12:12am 8 9 mph 1016.2mb 49f 33f
12:06am 8 9 mph 1016.2mb 49f 33f
12:00am 8 9 mph 1016.2mb 49f 33f
Mon 12/05 11:54pm 8 9 mph 1016.1mb 49f 33f
11:48pm 8 9 mph 1016.2mb 49f 33f
11:36pm 8 10 mph 1016.2mb 49f 34f
11:30pm 8 9 mph 1016.2mb 49f 34f
11:24pm 8 10 mph 1016.2mb 49f 34f
11:18pm 8 10 mph 1016.2mb 49f 35f
11:12pm 9 10 mph 1016.2mb 49f 35f
11:06pm 8 9 mph 1016.2mb 49f 35f
11:00pm 8 10 mph 1016.2mb 49f 35f
10:54pm 7 9 mph 1016.2mb 49f 35f
10:48pm 8 9 mph 1016.2mb 49f 35f
10:36pm 6 8 mph 1016.2mb 49f 35f
10:30pm 6 8 mph 1016.2mb 49f 35f
10:24pm 7 8 mph 1016.1mb 49f 35f
10:18pm 7 8 mph 1016.1mb 49f 35f
10:12pm 8 9 mph 1016mb 49f 35f
10:06pm 8 9 mph 1016mb 49f 35f
10:00pm 8 9 mph 1015.9mb 49f 34f
9:54pm 8 10 mph 1015.9mb 49f 34f
9:48pm 8 10 mph 1015.9mb 49f 34f
9:36pm 8 10 mph 1015.8mb 49f 34f
9:30pm 9 10 mph 1015.8mb 49f 35f
9:24pm 8 10 mph 1015.8mb 49f 35f
9:18pm 8 9 mph 1015.8mb 49f 35f
9:12pm 8 9 mph 1015.7mb 49f 35f
9:06pm 8 9 mph 1015.7mb 49f 35f
9:00pm 8 9 mph 1015.7mb 49f 35f
8:36pm 7 8 mph 1015.5mb 49f 35f
8:30pm 6 8 mph 1015.5mb 49f 35f
8:24pm 6 9 mph 1015.5mb 48f 35f
8:18pm 7 9 mph 1015.4mb 49f 36f
8:12pm 5 7 mph 1015.5mb 49f 36f
8:06pm 6 8 mph 1015.5mb 49f 36f
8:00pm 8 9 mph 1015.5mb 49f 36f
7:54pm 7 9 mph 1015.6mb 50f 36f
7:48pm 7 9 mph 1015.6mb 50f 36f
7:36pm 6 8 mph 1015.7mb 50f 36f
7:30pm 6 10 mph 1015.8mb 51f 36f
7:24pm 7 9 mph 1015.9mb 51f 36f
7:18pm 8 9 mph 1015.9mb 49f 36f
7:12pm 9 10 mph 1015.9mb 49f 36f
7:06pm 7 11 mph 1015.9mb 50f 36f
7:00pm 7 10 mph 1015.9mb 50f 36f
6:54pm 9 10 mph 1016mb 50f 36f
6:48pm 7 8 mph 1016mb 50f 36f
6:36pm 3 5 mph 1016mb 51f 36f
6:30pm 3
mph
1015.9mb 50f 35f
6:24pm 2 3 mph 1015.9mb 51f 35f
6:18pm 2 3 mph 1015.9mb 51f 35f
6:12pm 1 3 mph 1015.8mb 51f 35f
6:06pm 3 6 mph 1015.8mb 51f 35f
6:00pm 3 8 mph 1015.7mb 51f 35f
5:54pm 5 7 mph 1015.7mb 51f 36f
5:48pm 5 7 mph 1015.7mb 51f 36f
5:36pm 6 9 mph 1015.7mb 51f 35f
5:30pm 6 11 mph 1015.7mb 51f 35f
5:24pm 10 13 mph 1015.6mb 51f 35f
5:18pm 8 9 mph 1015.7mb 51f 35f
5:12pm 7 9 mph 1015.7mb 51f 35f
5:06pm 6 8 mph 1015.6mb 51f 35f
5:00pm 6 11 mph 1015.6mb 51f 35f
4:54pm 8 11 mph 1015.6mb 52f 35f
4:48pm 7 13 mph 1015.6mb 52f 35f
4:36pm 9 13 mph 1015.6mb 52f 35f
4:30pm 9 13 mph 1015.6mb 52f 35f
4:24pm 9 11 mph 1015.7mb 52f 35f
4:18pm 9 11 mph 1015.8mb 52f 35f
4:12pm 8 11 mph 1015.8mb 52f 35f
4:06pm 9 11 mph 1015.8mb 52f 35f
4:00pm 8 10 mph 1015.9mb 52f 36f
3:54pm 8 10 mph 1016mb 52f 36f
3:48pm 7 8 mph 1016mb 52f 36f
3:36pm 6 13 mph 1016.2mb 51f 36f
3:30pm 7 14 mph 1016.2mb 51f 36f
3:24pm 8 15 mph 1016.3mb 51f 36f
3:18pm 13 16 mph 1016.4mb 51f 37f
3:12pm 11 16 mph 1016.3mb 51f 37f
3:06pm 7 14 mph 1016.3mb 51f 37f
3:00pm 14 16 mph 1016.3mb 51f 38f
2:54pm 14 18 mph 1016.3mb 51f 38f
2:48pm 17 20 mph 1016.4mb 51f 37f
2:36pm 7 11 mph 1016.4mb 51f 39f
2:30pm 7 9 mph 1016.3mb 51f 39f
2:24pm 6 10 mph 1016.3mb 51f 39f
2:18pm 8 13 mph 1016.2mb 51f 39f
2:12pm 8 10 mph 1016.2mb 51f 39f
2:06pm 7 9 mph 1016.3mb 52f 39f
2:00pm 7 10 mph 1016.3mb 52f 39f
1:54pm 7 9 mph 1016.4mb 52f 39f
1:48pm 6 10 mph 1016.4mb 51f 40f
1:36pm 7 9 mph 1016.3mb 51f 40f
1:30pm 6 8 mph 1016.5mb 51f 40f
1:24pm 7 8 mph 1016.5mb 51f 40f
1:18pm 5 7 mph 1016.6mb 51f 40f
1:12pm 6 7 mph 1016.7mb 51f 40f
1:06pm 3 6 mph 1016.7mb 51f 40f
1:00pm 6 7 mph 1016.7mb 50f 40f
12:54pm 5 8 mph 1016.8mb 49f 40f
12:48pm 6 7 mph 1016.8mb 49f 40f
12:36pm 6 8 mph 1016.9mb 50f 40f
12:30pm 8 10 mph 1016.9mb 50f 40f
12:24pm 9 11 mph 1016.9mb 50f 39f
12:18pm 5 10 mph 1017mb 51f 40f
12:12pm 8 10 mph 1017.1mb 51f 40f
12:06pm 7 9 mph 1017.2mb 51f 39f
12:00pm 8 10 mph 1017.3mb 51f 39f
11:54am 7 9 mph 1017.4mb 51f 39f
11:48am 7 9 mph 1017.5mb 51f 38f
11:36am 7 9 mph 1017.5mb 51f 38f
11:30am 8 10 mph 1017.6mb 51f 38f
11:24am 9 11 mph 1017.6mb 51f 37f
11:18am 7 10 mph 1017.6mb 52f 37f
11:12am 9 11 mph 1017.6mb 53f 37f
11:06am 8 11 mph 1017.7mb 52f 37f
11:00am 8 10 mph 1017.8mb 51f 37f
10:54am 7 13 mph 1017.8mb 51f 37f
10:48am 9 11 mph 1017.9mb 51f 37f
10:36am 10 13 mph 1017.9mb 53f 37f
10:30am 11 13 mph 1017.9mb 53f 37f
10:24am 6 11 mph 1018mb 53f 37f
10:18am 8 10 mph 1017.9mb 53f 37f
10:12am 9 11 mph 1017.8mb 53f 37f
10:06am 9 11 mph 1017.9mb 53f 37f
10:00am 7 8 mph 1018mb 53f 37f
9:54am 7 9 mph 1018mb 53f 37f
9:48am 5 10 mph 1018mb 53f 36f
9:36am 8 14 mph 1017.8mb 53f 36f
9:30am 11 14 mph 1017.6mb 53f 36f
9:24am 10 14 mph 1017.6mb 53f 36f
9:18am 11 15 mph 1017.6mb 53f 36f
9:12am 9 14 mph 1017.6mb 53f 36f
9:06am 10 14 mph 1017.6mb 53f 37f
9:00am 8 11 mph 1017.7mb 53f 37f
8:54am 9 13 mph 1017.7mb 53f 36f
8:48am 11 14 mph 1017.7mb 53f 36f
8:36am 11 14 mph 1017.7mb 53f 36f
8:30am 11 14 mph 1017.7mb 53f 36f
8:24am 10 14 mph 1017.8mb 53f 36f
8:18am 11 17 mph 1017.7mb 53f 36f
8:12am 13 17 mph 1017.8mb 53f 37f
8:06am 13 16 mph 1017.8mb 54f 37f
8:00am 10 14 mph 1017.9mb 53f 37f
7:54am 8 11 mph 1017.8mb 54f 37f
7:48am 10 13 mph 1017.8mb 53f 38f
7:36am 7 9 mph 1017.9mb 53f 38f
7:30am 8 14 mph 1017.6mb 53f 37f
7:24am 7 10 mph 1017.6mb 53f 38f
7:18am 9 15 mph 1017.5mb 53f 38f
7:12am 11 16 mph 1017.7mb 53f 38f
7:06am 5 8 mph 1017.7mb 53f 38f
7:00am 7 16 mph 1017.5mb 53f 38f
6:54am 8 10 mph 1017.7mb 54f 38f
6:48am 7 9 mph 1017.7mb 54f 38f
6:36am 3 6 mph 1017.6mb 54f 39f
6:30am 1 7 mph 1017.7mb 54f 40f
6:24am 2 7 mph 1017.7mb 54f 39f
6:18am 2 5 mph 1017.6mb 54f 39f
6:12am 3 6 mph 1017.8mb 54f 39f
6:06am 3 6 mph 1017.9mb 54f 39f
6:00am 2 3 mph 1017.9mb 54f 39f
5:54am 3 5 mph 1018mb 54f 39f
5:48am 1 5 mph 1018.1mb 54f 39f
5:36am 5 9 mph 1018.1mb 54f 39f
5:30am 8 10 mph 1018.2mb 54f 39f
5:24am 7 16 mph 1018.3mb 54f 39f
5:18am 13 21 mph 1018.3mb 54f 39f
5:12am 17 24 mph 1018.2mb 54f 39f
5:06am 24 41 mph 1018mb 54f 39f
5:00am 9 21 mph 1018mb 54f 39f
4:54am 6 9 mph 1018.2mb 54f 38f
4:48am 3 8 mph 1018.4mb 54f 37f
4:36am 10 15 mph 1018.7mb 54f 36f
4:30am 8 13 mph 1018.7mb 54f 36f
4:24am 11 16 mph 1018.8mb 54f 36f
4:18am 9 14 mph 1018.8mb 54f 36f
4:12am 13 16 mph 1018.9mb 54f 36f
4:06am 13 18 mph 1019.1mb 54f 35f